Oscoda, Michigan
Current Conditions -  °F | °C
As of 10:53 PM on Saturday 20 Dec 2014 (Local Time) from KOSC Reporting Station
Scattered Clouds Scattered Clouds  
Wind Chill: -8°   Ceiling: Unl
Heat Index: -8°   Visibility: 7mi
Dew Point: -8°   Wind: 0mph
Humidity: 96%   Direction: NA
Pressure: 30.27"   Gusts: NA
Location:  44.42°N, 83.33°W
Report Text: KOSC 210353Z AUTO 00000KT 7SM SCT024 M07/M08 A3027 RMK AO2 T10761081
Loading
Personal Weather Stations






























Interactive Weather Map New forecast layout! Learn more

10-Day Weather Forecast

Advertisements
Track Severe Weather on mobile